Terminal Aerodrome Forecast
Issued by NWS

Home | Current Version | Previous Version | Text Only | Print | Product List | Glossary On
Versions: 1 2 3 4 5 6 7 8 9 10 11 12 13
388
FTUS44 KTSA 232320
TAFMLC
TAF
KMLC 232320Z 2400/2424 18005KT P6SM FEW060 SCT250
     FM240200 15004KT P6SM SCT250
     FM241500 23007KT P6SM SKC
     FM242100 20007KT P6SM VCTS SCT050CB=

USA.gov is the U.S. government's official web portal to all federal, state and local government web resources and services.